createdAt,value
2022-10-22T00:00:00.285Z,0.0
2022-10-22T00:05:00.233Z,0.0
2022-10-22T00:10:00.252Z,0.0
2022-10-22T00:15:00.262Z,0.0
2022-10-22T00:20:00.249Z,0.0
2022-10-22T00:25:00.237Z,0.0
2022-10-22T00:30:00.284Z,0.0
2022-10-22T00:35:00.256Z,0.0
2022-10-22T00:40:00.255Z,0.0
2022-10-22T00:45:00.257Z,0.0
2022-10-22T00:50:00.384Z,0.0
2022-10-22T00:55:00.243Z,0.0
2022-10-22T01:00:00.374Z,0.0
2022-10-22T01:05:00.240Z,0.0
2022-10-22T01:10:00.280Z,0.0
2022-10-22T01:15:00.254Z,0.2
2022-10-22T01:20:00.273Z,0.5
2022-10-22T01:25:00.258Z,0.3
2022-10-22T01:30:00.250Z,0.1
2022-10-22T01:35:00.232Z,0.0
2022-10-22T01:40:00.298Z,0.0
2022-10-22T01:45:00.317Z,0.8
2022-10-22T01:50:00.253Z,0.7
2022-10-22T01:55:00.240Z,0.6
2022-10-22T02:00:00.355Z,1.6
2022-10-22T02:05:00.251Z,0.5
2022-10-22T02:10:00.267Z,0.2
2022-10-22T02:15:00.260Z,0.6
2022-10-22T02:20:00.447Z,0.2
2022-10-22T02:25:00.230Z,1.5
2022-10-22T02:30:00.419Z,0.2
2022-10-22T02:35:00.250Z,0.4
2022-10-22T02:40:00.306Z,0.3
2022-10-22T02:45:00.243Z,0.0
2022-10-22T02:50:00.266Z,0.5
2022-10-22T02:55:00.239Z,0.2
2022-10-22T03:00:00.271Z,0.1
2022-10-22T03:05:00.270Z,1.6
2022-10-22T03:10:00.271Z,1.0
2022-10-22T03:15:00.252Z,0.4
2022-10-22T03:20:00.284Z,0.2
2022-10-22T03:25:00.256Z,0.1
2022-10-22T03:30:00.290Z,0.1
2022-10-22T03:40:00.280Z,0.0
2022-10-22T03:45:00.245Z,0.0
2022-10-22T03:50:00.270Z,0.0
2022-10-22T03:55:00.253Z,0.0
2022-10-22T04:00:00.262Z,0.1
2022-10-22T04:05:00.464Z,0.8
2022-10-22T04:10:00.296Z,0.8
2022-10-22T04:15:00.260Z,0.0
2022-10-22T04:20:00.273Z,0.2
2022-10-22T04:25:00.423Z,0.1
2022-10-22T04:30:00.272Z,0.2
2022-10-22T04:35:00.274Z,0.1
2022-10-22T04:40:00.327Z,0.1
2022-10-22T04:45:00.252Z,0.6
2022-10-22T04:50:00.360Z,0.3
2022-10-22T04:55:00.297Z,0.1
2022-10-22T05:00:00.305Z,0.0
2022-10-22T05:05:00.234Z,0.0
2022-10-22T05:10:00.298Z,0.0
2022-10-22T05:15:00.272Z,0.0
2022-10-22T05:20:00.318Z,0.0
2022-10-22T05:25:00.244Z,0.0
2022-10-22T05:30:00.283Z,0.0
2022-10-22T05:35:00.253Z,0.0
2022-10-22T05:40:19.715Z,0.0
2022-10-22T05:45:00.260Z,0.0
2022-10-22T05:50:00.267Z,0.1
2022-10-22T05:55:00.248Z,0.2
2022-10-22T06:00:00.252Z,0.3
2022-10-22T06:05:00.249Z,0.0
2022-10-22T06:10:00.283Z,0.0
2022-10-22T06:15:00.252Z,0.1
2022-10-22T06:20:00.512Z,0.0
2022-10-22T06:25:00.266Z,0.2
2022-10-22T06:30:00.294Z,1.1
2022-10-22T06:35:00.280Z,0.3
2022-10-22T06:40:00.279Z,0.2
2022-10-22T06:50:00.268Z,0.3
2022-10-22T06:55:00.261Z,1.5
2022-10-22T07:00:00.282Z,1.5
2022-10-22T07:05:00.244Z,0.1
2022-10-22T07:10:00.282Z,0.1
2022-10-22T07:15:00.273Z,0.4
2022-10-22T07:20:00.323Z,0.0
2022-10-22T07:25:07.631Z,0.0
2022-10-22T07:30:00.295Z,0.0
2022-10-22T07:35:00.229Z,0.1
2022-10-22T07:40:04.255Z,2.0
2022-10-22T07:45:00.287Z,2.1
2022-10-22T07:50:00.287Z,0.6
2022-10-22T07:55:00.223Z,0.5
2022-10-22T08:00:00.287Z,0.0
2022-10-22T08:05:00.246Z,0.7
2022-10-22T08:10:00.278Z,0.1
2022-10-22T08:15:00.257Z,0.1
2022-10-22T08:20:00.349Z,0.3
2022-10-22T08:25:00.252Z,0.6
2022-10-22T08:30:00.516Z,0.1
2022-10-22T08:35:02.700Z,1.5
2022-10-22T08:40:00.282Z,0.8
2022-10-22T08:45:00.296Z,1.8
2022-10-22T08:50:00.356Z,0.7
2022-10-22T08:55:00.226Z,2.0
2022-10-22T09:00:00.288Z,2.8
2022-10-22T09:05:00.289Z,1.5
2022-10-22T09:10:00.263Z,0.8
2022-10-22T09:15:00.290Z,1.2
2022-10-22T09:20:00.595Z,0.9
2022-10-22T09:25:00.246Z,2.0
2022-10-22T09:30:00.284Z,0.8
2022-10-22T09:35:00.220Z,2.0
2022-10-22T09:40:00.632Z,3.3
2022-10-22T09:45:00.340Z,2.3
2022-10-22T09:50:00.331Z,2.3
2022-10-22T09:55:00.227Z,1.9
2022-10-22T10:00:00.269Z,1.2
2022-10-22T10:05:00.276Z,1.3
2022-10-22T10:10:00.278Z,2.2
2022-10-22T10:15:00.236Z,1.0
2022-10-22T10:20:02.949Z,2.1
2022-10-22T10:25:00.250Z,0.5
2022-10-22T10:30:00.290Z,2.8
2022-10-22T10:35:00.269Z,0.2
2022-10-22T10:40:00.241Z,1.4
2022-10-22T10:45:00.265Z,0.5
2022-10-22T10:50:00.305Z,1.5
2022-10-22T10:55:00.239Z,2.6
2022-10-22T11:00:00.272Z,3.6
2022-10-22T11:05:00.239Z,1.2
2022-10-22T11:10:00.268Z,5.9
2022-10-22T11:15:00.265Z,2.6
2022-10-22T11:20:00.739Z,3.5
2022-10-22T11:25:00.259Z,4.2
2022-10-22T11:30:00.276Z,3.0
2022-10-22T11:35:00.260Z,4.9
2022-10-22T11:40:00.265Z,4.2
2022-10-22T11:45:00.246Z,3.0
2022-10-22T11:50:00.290Z,4.2
2022-10-22T11:55:00.400Z,3.1
2022-10-22T12:00:00.294Z,0.9
2022-10-22T12:05:00.238Z,2.3
2022-10-22T12:10:00.419Z,4.1
2022-10-22T12:15:00.298Z,3.3
2022-10-22T12:20:02.075Z,2.4
2022-10-22T12:25:00.224Z,2.8
2022-10-22T12:30:00.323Z,3.7
2022-10-22T12:35:00.257Z,4.0
2022-10-22T12:40:00.289Z,1.7
2022-10-22T12:45:00.245Z,3.6
2022-10-22T12:50:00.257Z,1.3
2022-10-22T12:55:00.239Z,4.5
2022-10-22T13:05:00.254Z,5.1
2022-10-22T13:10:00.286Z,4.9
2022-10-22T13:15:00.234Z,2.9
2022-10-22T13:20:00.286Z,3.0
2022-10-22T13:25:00.509Z,2.9
2022-10-22T13:30:00.269Z,1.5
2022-10-22T13:35:00.241Z,4.4
2022-10-22T13:40:00.271Z,7.1
2022-10-22T13:45:00.228Z,3.2
2022-10-22T13:50:00.556Z,2.9
2022-10-22T13:55:00.232Z,4.1
2022-10-22T14:00:00.315Z,2.8
2022-10-22T14:05:00.305Z,4.3
2022-10-22T14:10:00.269Z,2.4
2022-10-22T14:15:00.401Z,2.2
2022-10-22T14:20:00.293Z,2.2
2022-10-22T14:25:00.327Z,3.5
2022-10-22T14:30:00.256Z,1.1
2022-10-22T14:35:00.237Z,3.0
2022-10-22T14:40:00.341Z,1.4
2022-10-22T14:45:00.234Z,4.2
2022-10-22T14:50:00.466Z,1.7
2022-10-22T14:55:00.265Z,1.9
2022-10-22T15:00:00.413Z,2.2
2022-10-22T15:05:00.346Z,2.4
2022-10-22T15:10:00.548Z,0.9
2022-10-22T15:15:00.225Z,0.3
2022-10-22T15:20:00.290Z,0.2
2022-10-22T15:25:00.308Z,0.4
2022-10-22T15:30:00.518Z,0.2
2022-10-22T15:35:00.243Z,0.1
2022-10-22T15:40:00.298Z,0.0
2022-10-22T15:45:00.232Z,0.0
2022-10-22T15:50:00.380Z,0.0
2022-10-22T15:55:00.363Z,0.2
2022-10-22T16:00:00.301Z,0.2
2022-10-22T16:05:00.243Z,0.2
2022-10-22T16:10:00.298Z,0.9
2022-10-22T16:15:00.244Z,0.2
2022-10-22T16:20:00.539Z,0.0
2022-10-22T16:25:00.243Z,0.0
2022-10-22T16:30:00.283Z,0.0
2022-10-22T16:35:00.271Z,0.0
2022-10-22T16:40:08.100Z,0.0
2022-10-22T16:45:00.235Z,0.0
2022-10-22T16:50:00.353Z,0.0
2022-10-22T16:55:00.215Z,0.4
2022-10-22T17:00:00.274Z,0.0
2022-10-22T17:05:00.236Z,0.0
2022-10-22T17:10:00.247Z,0.0
2022-10-22T17:15:00.356Z,0.0
2022-10-22T17:20:00.268Z,0.1
2022-10-22T17:25:00.226Z,0.0
2022-10-22T17:30:00.263Z,0.7
2022-10-22T17:35:00.271Z,0.6
2022-10-22T17:40:00.292Z,0.7
2022-10-22T17:45:00.230Z,1.4
2022-10-22T17:50:00.249Z,1.3
2022-10-22T17:55:00.232Z,0.9
2022-10-22T18:00:00.258Z,1.2
2022-10-22T18:05:00.225Z,2.5
2022-10-22T18:10:00.281Z,1.5
2022-10-22T18:15:00.250Z,2.8
2022-10-22T18:20:00.265Z,3.9
2022-10-22T18:25:00.221Z,2.6
2022-10-22T18:30:00.661Z,1.4
2022-10-22T18:35:00.270Z,0.8
2022-10-22T18:40:00.273Z,2.7
2022-10-22T18:50:00.306Z,1.1
2022-10-22T18:55:00.250Z,0.5
2022-10-22T19:00:00.278Z,0.7
2022-10-22T19:05:00.243Z,0.5
2022-10-22T19:10:00.257Z,0.1
2022-10-22T19:15:00.261Z,0.8
2022-10-22T19:20:00.280Z,0.2
2022-10-22T19:25:00.310Z,1.2
2022-10-22T19:30:00.292Z,0.7
2022-10-22T19:35:00.252Z,1.0
2022-10-22T19:40:00.262Z,0.5
2022-10-22T19:45:00.365Z,2.3
2022-10-22T19:50:00.268Z,6.0
2022-10-22T19:55:00.264Z,4.7
2022-10-22T20:00:00.243Z,5.0
2022-10-22T20:05:00.332Z,7.6
2022-10-22T20:10:00.249Z,6.0
2022-10-22T20:15:00.247Z,4.4
2022-10-22T20:20:00.269Z,0.8
2022-10-22T20:25:00.234Z,1.3
2022-10-22T20:30:00.281Z,1.9
2022-10-22T20:35:00.301Z,2.6
2022-10-22T20:40:00.290Z,2.3
2022-10-22T20:45:00.219Z,2.9
2022-10-22T20:50:00.245Z,2.7
2022-10-22T20:55:00.254Z,3.4
2022-10-22T21:00:00.288Z,2.6
2022-10-22T21:05:00.250Z,4.2
2022-10-22T21:10:00.271Z,5.1
2022-10-22T21:15:00.228Z,4.4
2022-10-22T21:20:00.458Z,4.2
2022-10-22T21:25:00.320Z,3.5
2022-10-22T21:30:00.276Z,2.4
2022-10-22T21:35:00.223Z,2.3
2022-10-22T21:40:00.230Z,3.2
2022-10-22T21:45:00.386Z,2.2
2022-10-22T21:50:00.287Z,2.2
2022-10-22T21:55:00.228Z,2.0
2022-10-22T22:00:00.300Z,0.8
2022-10-22T22:05:00.321Z,1.4
2022-10-22T22:10:00.250Z,1.9
2022-10-22T22:15:00.293Z,2.4
2022-10-22T22:20:00.273Z,0.3
2022-10-22T22:25:00.291Z,1.0
2022-10-22T22:30:00.284Z,0.1
2022-10-22T22:35:00.281Z,0.8
2022-10-22T22:40:00.269Z,0.5
2022-10-22T22:45:00.262Z,0.1
2022-10-22T22:50:00.279Z,1.0
2022-10-22T22:55:00.230Z,0.2
2022-10-22T23:00:00.282Z,0.1
2022-10-22T23:05:00.279Z,0.1
2022-10-22T23:10:00.349Z,0.2
2022-10-22T23:15:00.259Z,0.1
2022-10-22T23:20:00.272Z,0.0
2022-10-22T23:25:00.282Z,0.2
2022-10-22T23:30:00.582Z,0.2
2022-10-22T23:35:00.248Z,0.4
2022-10-22T23:40:00.275Z,1.5
2022-10-22T23:45:00.239Z,2.5
2022-10-22T23:50:00.394Z,1.5
2022-10-22T23:55:00.263Z,1.1
